Endicott, New York
Current Conditions -  °F | °C
As of 11:53 AM on Friday 28 Nov 2014 (Local Time) from KBGM Reporting Station
Overcast Overcast  
Wind Chill: 16°   Ceiling: 3300
Heat Index: 27°   Visibility: 10mi
Dew Point: 11°   Wind: 13mph
Humidity: 51%   Direction: 290°WNW
Pressure: 30.12"   Gusts: NA
Location:  42.1°N, 76.05°W
Report Text: KBGM 281653Z 29011KT 10SM OVC033 M03/M12 A3012 RMK AO2 SLP224 T10281117
Loading
Personal Weather Stations






























Interactive Weather Map New forecast layout! Learn more

10-Day Weather Forecast

Advertisements
Track Severe Weather on mobile